Newport, OR

1:04 AM PDT on April 24, 2017 (GMT -0700)
15 and Oceanview | | Change Station

Elev 180 ft 44.65 °N, 124.06 °W | Updated 12 minutes ago

Rain
Rain
49.2 °F
Feels Like 47 °F
N
6.0
Wind Variable Wind from SW

Today
High -- | Low -- °F
--% Chance of Precip.
Yesterday
High -- | Low -- °F
Precip. -- in
Pressure 29.81 in
Visibility 5.0 miles
Clouds Scattered Clouds 800 ft
Mostly Cloudy 1200 ft
Overcast 3900 ft
Windchill 47 °F
Dew Point 39 °F
Humidity 67%
Rainfall 0.07 in
Snow Depth Not available.
6:16 AM 8:12 PM
Waning Crescent, 7% visible
METAR KONP 240755Z AUTO 20018G28KT 5SM RA SCT008 BKN012 OVC039 08/07 A2981 RMK AO2 P0007
Pressure 29.81 in
Visibility 5.0 miles
Clouds Scattered Clouds 800 ft
Mostly Cloudy 1200 ft
Overcast 3900 ft
Windchill 47 °F
Dew Point 39 °F
Humidity 67%
Rainfall 0.07 in
Snow Depth Not available.
6:16 AM 8:12 PM
Waning Crescent, 7% visible
METAR KONP 240755Z AUTO 20018G28KT 5SM RA SCT008 BKN012 OVC039 08/07 A2981 RMK AO2 P0007

Get Severe Weather Alerts

Thanks for signing up!

Be on the lookout for a verification email in your inbox.

You'll start receiving the daily forecast at 8 AM.

×

10-Day Weather Forecast

Almanac

Astronomy

Apr. 24, 2017 Rise Set
Actual Time
Civil Twilight
Nautical Twilight
Astronomical Twilight
Moon
Length of Visible Light
Length of Day
Tomorrow will be .
, % of the Moon is Illuminated

Today's Extremes

State Highs State Lows

Community

WunderPhotos

WunderBlog® & News

Nearby

Air Quality

  Air Quality AQ Index Pollutant
Not available.

Snow Depth

Station Depth Elevation

Earthquake Activity

City Distance Mag. Time & Date
Minimum magnitude displayed is 2.5.

Coastal Water Temperatures

Place Temperature

Stations

Nearby Weather Stations

Station Location Temp. Windchill Dew Point Humidity Wind Precip. Elev Updated Type
                   

Watches & Warnings

There are currently no watches in effect.